• Join FlightAware (Why Join?)
  • Login
  • US Flag 
04:51PM EDT


 

Airport Tracker/Info


-or-


 

Live Flight TrackerFlight Track Log ✈ SWA232 ✈ 17-Dec-2013 ✈ KBWI - KBOS

Flight Track Log - Related Links

Times and Time Zones

All times are in EST time to prevent confusion due to time zone crossing. See the SWA232 flight status page for this flight to view local times or setup timezone preferences in your user account.

Time Position Orientation Groundspeed Altitude Reporting Facility
EST Latitude Longitude Course Direction KTS MPH feet Rate Location/Type
09:29PM 39.1833 -76.7500 191° South 214 246 2,400  Level Potomac TRACON
09:30PM 39.1167 -76.7667 191° South 281 323 6,000 2,280 Climbing Potomac TRACON
09:31PM 39.1167 -76.6833 90° East 291 335 7,000 1,260 Climbing Potomac TRACON
09:33PM 39.1267 -76.4958 86° East 300 345 9,700 1,440 Climbing Washington Center
09:34PM 39.1381 -76.3783 83° East 312 359 11,300 1,860 Climbing Washington Center
09:35PM 39.1492 -76.2447 84° East 343 395 13,500 2,340 Climbing Washington Center
09:36PM 39.1667 -76.1028 81° East 377 434 16,000 2,280 Climbing Washington Center
09:37PM 39.1836 -75.9558 81° East 396 456 18,100 2,220 Climbing Washington Center
09:38PM 39.2383 -75.8194 63° Northeast 412 474 20,500 2,340 Climbing Washington Center
09:39PM 39.3239 -75.7097 45° Northeast 406 467 22,900 1,860 Climbing Washington Center
09:40PM 39.4136 -75.5969 44° Northeast 423 487 24,300 1,320 Climbing Washington Center
09:42PM 39.6364 -75.3078 45° Northeast 473 544 27,300 1,320 Climbing New York Center
09:43PM 39.7314 -75.1708 48° Northeast 488 562 28,800 1,080 Climbing New York Center
09:44PM 39.8236 -75.0389 48° Northeast 494 568 29,500 840 Climbing New York Center
09:45PM 39.9206 -74.8986 48° Northeast 506 582 30,500 900 Climbing New York Center
09:46PM 40.0081 -74.7764 47° Northeast 511 588 31,400 1,200 Climbing New York Center
09:47PM 40.1044 -74.6325 49° Northeast 517 595 33,000 780 Climbing New York Center
09:48PM 40.1969 -74.4856 50° Northeast 517 595 33,000  Level New York Center
09:49PM 40.2889 -74.3408 50° Northeast 517 595 33,000  Level New York Center
09:50PM 40.3806 -74.1986 50° Northeast 512 589 33,000  Level New York Center
09:51PM 40.4722 -74.0558 50° Northeast 512 589 33,000  Level New York Center
09:53PM 40.6375 -73.8011 49° Northeast 509 586 33,000 -780 Level Boston Center
09:54PM 40.7344 -73.6464 50° Northeast 513 590 30,800 -2,460 Descending Boston Center
09:55PM 40.8186 -73.5089 51° Northeast 514 592 28,000 -1,920 Descending Boston Center
09:56PM 40.9103 -73.3669 49° Northeast 509 586 27,000 -540 Descending Boston Center
09:57PM 41.0056 -73.2272 48° Northeast 494 568 27,000 -420 Level Boston Center
09:58PM 41.0981 -73.0878 49° Northeast 500 575 26,200 -1,620 Descending Boston Center
09:59PM 41.1900 -72.9506 48° Northeast 501 577 23,800 -1,620 Descending Boston Center
10:00PM 41.2544 -72.8161 57° Northeast 462 532 23,000 -420 Descending Boston Center
10:01PM 41.3103 -72.6711 63° Northeast 444 511 23,000  Level Boston Center
10:02PM 41.3592 -72.5336 65° Northeast 425 489 23,000 -60 Level Boston Center
10:03PM 41.4119 -72.3925 63° Northeast 422 486 22,900 -1,080 Descending Boston Center
10:04PM 41.4731 -72.2286 63° Northeast 413 475 20,900 -1,800 Descending Boston Center
10:05PM 41.5203 -72.0969 64° Northeast 396 456 19,300 -1,680 Descending Boston Center
10:06PM 41.5675 -71.9678 64° Northeast 383 441 17,500 -1,740 Descending Boston Center
10:07PM 41.6047 -71.8397 69° East 371 427 15,800 -1,740 Descending Boston Center
10:08PM 41.6419 -71.7136 68° East 366 421 14,100 -1,680 Descending Boston Center
10:09PM 41.6811 -71.5831 68° East 358 412 12,400 -1,500 Descending Boston Center
10:10PM 41.7133 -71.4689 69° East 339 390 11,000 -720 Descending Boston Center
10:11PM 41.7547 -71.3581 63° Northeast 337 388 11,000 -300 Level Boston Center
10:12PM 41.7931 -71.2478 65° Northeast 329 379 10,400 -600 Descending Boston Center
10:13PM 41.8194 -71.1356 72° East 291 335 9,900 -240 Descending Boston Center
10:14PM 41.8408 -71.0439 73° East 262 302 10,000 -480 Climbing Boston Center
10:15PM 41.8617 -70.9539 73° East 255 293 9,000 -540 Descending Boston Center
10:16PM 41.8831 -70.8667 72° East 249 287 9,000 -60 Level Boston Center
10:17PM 41.9189 -70.7825 60° Northeast 256 295 8,900 -300 Descending Boston Center
10:18PM 41.9625 -70.8231 325° Northwest 207 238 8,400 -900 Descending Boston Center
10:19PM 41.9919 -70.8858 302° West 198 228 7,100 -1,140 Descending Boston Center
10:21PM 42.0333 -70.9667 305° West 184 212 5,900 -1,140 Descending KA90
10:22PM 42.0333 -71.0167 270° West 170 196 4,600 -1,380 Descending KA90
10:23PM 42.0500 -71.0833 289° West 173 199 3,200 -840 Descending KA90
10:24PM 42.0833 -71.1000 340° North 179 206 3,100 -60 Descending KA90
10:25PM 42.1333 -71.1167 346° North 176 203 3,100  Level KA90
10:26PM 42.1833 -71.1000 14° North 171 197 3,100 -60 Level KA90
10:27PM 42.2167 -71.0667 37° Northeast 169 194 3,000 -540 Descending KA90
10:28PM 42.2667 -71.0500 14° North 153 176 2,000 -780 Descending KA90
10:29PM 42.3000 -71.0333 20° North 107 123 1,400 -600 Descending KA90
10:30PM 42.3333 -71.0167 20° North 112 129 800 -600 Descending KA90